createdAt,value
2022-12-09T00:00:30.550Z,8.88
2022-12-09T00:03:01.959Z,9.88
2022-12-09T00:05:32.296Z,8.13
2022-12-09T00:08:02.378Z,9.55
2022-12-09T00:10:35.171Z,9.38
2022-12-09T00:13:05.391Z,9.20
2022-12-09T00:15:35.576Z,10.57
2022-12-09T00:18:06.240Z,10.20
2022-12-09T00:20:36.327Z,8.23
2022-12-09T00:23:06.608Z,10.25
2022-12-09T00:25:39.244Z,10.35
2022-12-09T00:28:09.487Z,10.38
2022-12-09T00:30:39.741Z,10.55
2022-12-09T00:33:10.025Z,10.65
2022-12-09T00:35:40.368Z,10.63
2022-12-09T00:38:10.471Z,11.23
2022-12-09T00:40:43.139Z,10.70
2022-12-09T00:43:13.205Z,11.00
2022-12-09T00:45:43.486Z,9.85
2022-12-09T00:48:13.513Z,10.07
2022-12-09T00:50:43.796Z,9.82
2022-12-09T00:53:13.798Z,9.32
2022-12-09T00:55:47.325Z,10.13
2022-12-09T00:58:17.635Z,9.48
2022-12-09T01:00:48.034Z,10.02
2022-12-09T01:03:19.585Z,9.32
2022-12-09T01:08:20.103Z,8.88
2022-12-09T01:10:53.233Z,10.75
2022-12-09T01:13:23.350Z,8.55
2022-12-09T01:15:53.657Z,12.77
2022-12-09T01:18:23.909Z,9.75
2022-12-09T01:20:59.822Z,9.75
2022-12-09T01:23:29.801Z,9.52
2022-12-09T01:26:02.465Z,8.65
2022-12-09T01:28:32.479Z,9.50
2022-12-09T01:31:09.385Z,9.65
2022-12-09T01:33:39.515Z,7.30
2022-12-09T01:36:11.829Z,9.35
2022-12-09T01:38:42.072Z,6.50
2022-12-09T01:41:15.496Z,8.80
2022-12-09T01:43:46.566Z,9.05
2022-12-09T01:46:16.888Z,6.72
2022-12-09T01:48:48.983Z,6.47
2022-12-09T01:51:23.469Z,8.57
2022-12-09T01:53:54.704Z,8.35
2022-12-09T01:56:31.938Z,9.20
2022-12-09T01:59:05.277Z,8.20
2022-12-09T02:01:36.133Z,8.40
2022-12-09T02:04:06.939Z,10.20
2022-12-09T02:06:39.923Z,8.93
2022-12-09T02:09:11.028Z,8.45
2022-12-09T02:11:54.137Z,9.23
2022-12-09T02:14:30.750Z,8.98
2022-12-09T02:17:17.197Z,6.72
2022-12-09T02:20:01.786Z,9.45
2022-12-09T02:22:36.280Z,9.23
2022-12-09T02:25:19.235Z,9.40
2022-12-09T02:28:02.154Z,10.65
2022-12-09T02:30:40.447Z,10.52
2022-12-09T02:33:28.658Z,10.48
2022-12-09T02:36:08.306Z,9.38
2022-12-09T02:38:41.527Z,10.18
2022-12-09T02:41:17.155Z,8.82
2022-12-09T02:43:53.241Z,9.35
2022-12-09T02:46:25.082Z,9.20
2022-12-09T02:48:58.464Z,9.13
2022-12-09T02:51:34.631Z,9.18
2022-12-09T02:54:10.085Z,8.40
2022-12-09T02:56:41.854Z,9.38
2022-12-09T02:59:12.842Z,9.15
2022-12-09T03:01:48.472Z,8.82
2022-12-09T03:04:23.880Z,8.05
2022-12-09T03:06:58.564Z,9.68
2022-12-09T03:09:32.245Z,9.60
2022-12-09T03:12:08.240Z,9.90
2022-12-09T03:14:43.796Z,9.50
2022-12-09T03:17:20.388Z,9.20
2022-12-09T03:19:54.845Z,9.35
2022-12-09T03:22:32.436Z,9.20
2022-12-09T03:25:06.481Z,10.02
2022-12-09T03:27:41.377Z,7.93
2022-12-09T03:30:13.838Z,10.40
2022-12-09T03:32:46.277Z,9.15
2022-12-09T03:35:21.937Z,9.35
2022-12-09T03:37:55.752Z,9.13
2022-12-09T03:40:30.628Z,8.43
2022-12-09T03:43:06.603Z,8.65
2022-12-09T03:45:37.185Z,9.45
2022-12-09T03:48:07.779Z,9.45
2022-12-09T03:50:43.276Z,10.48
2022-12-09T03:53:19.108Z,10.02
2022-12-09T03:55:58.306Z,9.48
2022-12-09T03:58:29.690Z,9.00
2022-12-09T04:00:59.952Z,9.25
2022-12-09T04:03:30.221Z,10.15
2022-12-09T04:06:00.896Z,10.07
2022-12-09T04:08:33.890Z,10.18
2022-12-09T04:11:04.634Z,10.02
2022-12-09T04:13:34.947Z,10.27
2022-12-09T04:16:05.329Z,10.45
2022-12-09T04:18:35.985Z,10.07
2022-12-09T04:21:09.782Z,9.80
2022-12-09T04:23:43.396Z,7.20
2022-12-09T04:26:18.634Z,7.95
2022-12-09T04:28:48.909Z,9.55
2022-12-09T04:31:21.417Z,8.95
2022-12-09T04:33:52.008Z,8.70
2022-12-09T04:36:23.229Z,8.68
2022-12-09T04:38:55.980Z,8.30
2022-12-09T04:41:26.215Z,9.60
2022-12-09T04:43:56.249Z,9.43
2022-12-09T04:46:26.855Z,8.73
2022-12-09T04:48:57.549Z,9.70
2022-12-09T04:51:28.038Z,9.98
2022-12-09T04:54:01.143Z,7.18
2022-12-09T04:56:31.502Z,8.52
2022-12-09T04:59:01.783Z,8.70
2022-12-09T05:01:32.470Z,8.93
2022-12-09T05:04:03.161Z,8.65
2022-12-09T05:06:33.743Z,7.85
2022-12-09T05:09:06.742Z,8.55
2022-12-09T05:11:36.924Z,9.07
2022-12-09T05:14:07.207Z,9.68
2022-12-09T05:16:37.421Z,9.70
2022-12-09T05:19:07.962Z,8.80
2022-12-09T05:21:38.510Z,8.00
2022-12-09T05:24:11.794Z,8.35
2022-12-09T05:26:42.323Z,8.55
2022-12-09T05:29:16.604Z,8.18
2022-12-09T05:31:51.764Z,8.32
2022-12-09T05:34:22.757Z,9.05
2022-12-09T05:36:53.624Z,8.95
2022-12-09T05:39:26.718Z,8.38
2022-12-09T05:41:57.081Z,9.30
2022-12-09T05:44:27.385Z,8.63
2022-12-09T05:46:57.587Z,8.75
2022-12-09T05:49:28.578Z,9.30
2022-12-09T05:51:59.083Z,10.52
2022-12-09T05:54:32.390Z,13.05
2022-12-09T05:57:04.449Z,9.55
2022-12-09T05:59:34.942Z,8.10
2022-12-09T06:02:09.808Z,9.65
2022-12-09T06:04:41.222Z,10.48
2022-12-09T06:07:11.514Z,9.57
2022-12-09T06:09:45.092Z,9.63
2022-12-09T06:12:15.254Z,9.48
2022-12-09T06:14:45.540Z,9.40
2022-12-09T06:17:16.446Z,10.70
2022-12-09T06:19:46.825Z,10.70
2022-12-09T06:22:17.420Z,9.60
2022-12-09T06:24:56.806Z,10.65
2022-12-09T06:27:27.575Z,9.68
2022-12-09T06:30:01.255Z,10.90
2022-12-09T06:32:31.503Z,9.93
2022-12-09T06:35:02.256Z,9.43
2022-12-09T06:37:32.742Z,10.07
2022-12-09T06:40:06.754Z,10.98
2022-12-09T06:42:36.974Z,9.48
2022-12-09T06:45:08.120Z,9.93
2022-12-09T06:47:38.668Z,9.95
2022-12-09T06:50:10.897Z,9.93
2022-12-09T06:52:42.175Z,10.63
2022-12-09T06:55:15.656Z,11.80
2022-12-09T06:57:46.218Z,11.85
2022-12-09T07:00:17.900Z,12.35
2022-12-09T07:02:48.540Z,11.25
2022-12-09T07:05:19.460Z,11.88
2022-12-09T07:07:53.977Z,10.20
2022-12-09T07:10:27.141Z,10.18
2022-12-09T07:12:57.491Z,9.63
2022-12-09T07:15:29.776Z,9.98
2022-12-09T07:18:00.223Z,9.60
2022-12-09T07:20:30.585Z,9.00
2022-12-09T07:23:01.096Z,8.57
2022-12-09T07:25:33.851Z,10.13
2022-12-09T07:28:03.817Z,11.27
2022-12-09T07:30:33.998Z,11.88
2022-12-09T07:33:04.716Z,11.02
2022-12-09T07:35:34.850Z,9.90
2022-12-09T07:38:05.592Z,11.13
2022-12-09T07:40:39.270Z,10.43
2022-12-09T07:43:10.141Z,10.73
2022-12-09T07:45:41.112Z,9.25
2022-12-09T07:48:12.154Z,10.55
2022-12-09T07:50:43.365Z,23.63
2022-12-09T07:53:13.693Z,12.98
2022-12-09T07:55:46.657Z,10.32
2022-12-09T07:58:16.988Z,10.30
2022-12-09T08:00:47.026Z,10.10
2022-12-09T08:03:17.206Z,11.02
2022-12-09T08:05:51.752Z,9.95
2022-12-09T08:08:22.229Z,9.57
2022-12-09T08:10:55.629Z,10.40
2022-12-09T08:13:26.038Z,10.15
2022-12-09T08:15:56.440Z,11.23
2022-12-09T08:18:26.778Z,11.15
2022-12-09T08:20:57.388Z,11.65
2022-12-09T08:23:27.718Z,11.98
2022-12-09T08:26:01.006Z,11.73
2022-12-09T08:28:33.099Z,13.20
2022-12-09T08:31:10.554Z,12.48
2022-12-09T08:33:41.682Z,16.35
2022-12-09T08:36:15.152Z,12.38
2022-12-09T08:38:45.693Z,12.45
2022-12-09T08:41:20.134Z,11.45
2022-12-09T08:43:50.784Z,11.93
2022-12-09T08:46:21.147Z,12.10
2022-12-09T08:48:52.024Z,11.95
2022-12-09T08:51:22.255Z,12.80
2022-12-09T08:53:52.422Z,11.85
2022-12-09T08:56:25.174Z,11.63
2022-12-09T08:58:56.471Z,11.50
2022-12-09T09:01:32.659Z,10.70
2022-12-09T09:04:04.970Z,11.63
2022-12-09T09:06:35.484Z,11.98
2022-12-09T09:09:06.830Z,11.25
2022-12-09T09:11:40.398Z,9.30
2022-12-09T09:14:12.455Z,9.95
2022-12-09T09:16:45.349Z,11.13
2022-12-09T09:19:19.534Z,7.72
2022-12-09T09:21:50.105Z,7.53
2022-12-09T09:24:22.234Z,8.00
2022-12-09T09:26:56.850Z,10.10
2022-12-09T09:29:27.629Z,8.20
2022-12-09T09:31:58.401Z,9.07
2022-12-09T09:34:29.874Z,10.07
2022-12-09T09:37:00.526Z,7.60
2022-12-09T09:39:30.730Z,10.10
2022-12-09T09:42:08.970Z,8.70
2022-12-09T09:44:43.945Z,8.93
2022-12-09T09:47:19.865Z,9.43
2022-12-09T09:49:56.414Z,8.77
2022-12-09T09:52:30.350Z,7.88
2022-12-09T09:55:01.423Z,7.88
2022-12-09T09:57:39.856Z,8.55
2022-12-09T10:00:23.382Z,8.63
2022-12-09T10:05:34.453Z,8.20
2022-12-09T10:08:24.854Z,8.65
2022-12-09T10:11:05.869Z,10.27
2022-12-09T10:13:49.695Z,8.73
2022-12-09T10:16:25.117Z,9.75
2022-12-09T10:19:09.361Z,9.20
2022-12-09T10:21:45.286Z,8.38
2022-12-09T10:24:24.225Z,8.75
2022-12-09T10:27:07.543Z,9.23
2022-12-09T10:29:54.186Z,9.40
2022-12-09T10:32:27.849Z,16.38
2022-12-09T10:34:58.222Z,12.27
2022-12-09T10:37:32.262Z,9.00
2022-12-09T10:40:17.539Z,8.98
2022-12-09T10:43:02.867Z,9.45
2022-12-09T10:46:08.362Z,8.55
2022-12-09T10:48:34.121Z,8.48
2022-12-09T10:53:38.865Z,8.15
2022-12-09T10:56:10.355Z,10.65
2022-12-09T10:58:40.781Z,8.10
2022-12-09T11:01:16.072Z,10.50
2022-12-09T11:03:52.637Z,9.82
2022-12-09T11:06:27.359Z,9.55
2022-12-09T11:09:00.561Z,9.48
2022-12-09T11:11:47.173Z,9.38
2022-12-09T11:14:25.726Z,9.73
2022-12-09T11:17:01.967Z,9.80
2022-12-09T11:19:35.148Z,9.90
2022-12-09T11:22:29.273Z,8.93
2022-12-09T11:25:15.803Z,9.85
2022-12-09T11:27:52.438Z,8.93
2022-12-09T11:30:25.815Z,9.13
2022-12-09T11:33:03.640Z,9.13
2022-12-09T11:35:40.084Z,9.75
2022-12-09T11:38:24.704Z,9.07
2022-12-09T11:43:45.559Z,12.57
2022-12-09T11:46:27.469Z,9.73
2022-12-09T11:49:04.375Z,8.20
2022-12-09T11:51:38.943Z,7.75
2022-12-09T11:54:23.386Z,8.15
2022-12-09T11:56:55.581Z,8.50
2022-12-09T11:59:32.341Z,8.18
2022-12-09T12:02:14.827Z,7.80
2022-12-09T12:04:54.981Z,7.75
2022-12-09T12:07:33.057Z,8.23
2022-12-09T12:10:03.405Z,9.23
2022-12-09T12:12:44.307Z,9.45
2022-12-09T12:15:20.299Z,8.32
2022-12-09T12:17:55.276Z,7.38
2022-12-09T12:20:39.822Z,8.38
2022-12-09T12:25:57.582Z,8.13
2022-12-09T12:29:12.475Z,9.10
2022-12-09T12:32:08.622Z,9.27
2022-12-09T12:34:46.978Z,8.98
2022-12-09T12:37:32.814Z,8.45
2022-12-09T12:40:10.897Z,9.02
2022-12-09T12:43:07.953Z,7.90
2022-12-09T12:46:02.423Z,7.47
2022-12-09T12:48:42.146Z,7.85
2022-12-09T12:51:29.827Z,7.45
2022-12-09T12:54:12.973Z,8.57
2022-12-09T12:56:56.913Z,8.18
2022-12-09T12:59:37.644Z,7.90
2022-12-09T13:02:28.228Z,7.47
2022-12-09T13:05:03.931Z,7.65
2022-12-09T13:07:39.775Z,7.70
2022-12-09T13:10:24.352Z,8.02
2022-12-09T13:13:01.885Z,11.07
2022-12-09T13:15:36.140Z,11.18
2022-12-09T13:18:14.645Z,11.48
2022-12-09T13:20:50.022Z,13.50
2022-12-09T13:23:30.183Z,17.45
2022-12-09T13:26:23.712Z,21.23
2022-12-09T13:29:00.465Z,21.08
2022-12-09T13:31:32.951Z,15.82
2022-12-09T13:34:20.709Z,14.75
2022-12-09T13:36:52.173Z,13.65
2022-12-09T13:39:52.036Z,14.15
2022-12-09T13:43:01.483Z,13.98
2022-12-09T13:45:37.362Z,21.48
2022-12-09T13:48:29.823Z,14.38
2022-12-09T13:51:01.272Z,15.32
2022-12-09T13:56:05.986Z,11.18
2022-12-09T13:59:09.016Z,10.82
2022-12-09T14:01:45.334Z,9.90
2022-12-09T14:04:22.147Z,10.77
2022-12-09T14:07:08.255Z,10.85
2022-12-09T14:09:48.706Z,11.73
2022-12-09T14:12:53.716Z,13.02
2022-12-09T14:15:42.736Z,12.05
2022-12-09T14:18:32.732Z,12.05
2022-12-09T14:21:25.515Z,12.85
2022-12-09T14:24:25.599Z,12.85
2022-12-09T14:27:12.331Z,13.57
2022-12-09T14:29:57.422Z,11.88
2022-12-09T14:32:33.575Z,12.00
2022-12-09T14:35:07.048Z,11.93
2022-12-09T14:37:53.589Z,16.55
2022-12-09T14:40:53.678Z,12.25
2022-12-09T14:43:51.269Z,11.70
2022-12-09T14:46:28.574Z,11.88
2022-12-09T14:49:04.965Z,11.13
2022-12-09T14:51:42.667Z,12.25
2022-12-09T14:54:20.755Z,12.30
2022-12-09T14:59:26.123Z,13.52
2022-12-09T15:01:59.379Z,11.93
2022-12-09T15:04:34.489Z,12.15
2022-12-09T15:07:16.955Z,10.70
2022-12-09T15:09:58.534Z,11.20
2022-12-09T15:12:33.516Z,11.68
2022-12-09T15:15:08.205Z,11.95
2022-12-09T15:17:44.636Z,11.15
2022-12-09T15:20:29.191Z,10.90
2022-12-09T15:23:01.204Z,10.85
2022-12-09T15:25:31.866Z,10.60
2022-12-09T15:28:04.588Z,11.68
2022-12-09T15:30:37.738Z,11.63
2022-12-09T15:33:16.931Z,11.73
2022-12-09T15:35:54.712Z,13.00
2022-12-09T15:38:27.940Z,14.68
2022-12-09T15:41:12.926Z,11.68
2022-12-09T15:43:46.795Z,13.18
2022-12-09T15:46:20.154Z,13.43
2022-12-09T15:48:53.220Z,11.60
2022-12-09T15:51:26.974Z,13.82
2022-12-09T15:54:00.812Z,13.20
2022-12-09T15:56:36.954Z,15.88
2022-12-09T15:59:17.602Z,14.40
2022-12-09T16:01:52.414Z,15.30
2022-12-09T16:04:24.864Z,13.43
2022-12-09T16:06:58.686Z,12.27
2022-12-09T16:09:28.912Z,14.18
2022-12-09T16:11:59.042Z,13.48
2022-12-09T16:14:29.594Z,14.75
2022-12-09T16:17:03.070Z,14.05
2022-12-09T16:19:40.663Z,14.88
2022-12-09T16:22:24.133Z,16.77
2022-12-09T16:27:49.890Z,15.88
2022-12-09T16:30:23.365Z,14.45
2022-12-09T16:32:55.517Z,14.27
2022-12-09T16:35:28.333Z,14.98
2022-12-09T16:38:19.749Z,16.35
2022-12-09T16:43:38.112Z,14.35
2022-12-09T16:46:49.709Z,15.70
2022-12-09T16:49:19.945Z,22.77
2022-12-09T16:51:52.815Z,18.20
2022-12-09T16:54:25.424Z,16.27
2022-12-09T16:56:55.639Z,15.40
2022-12-09T16:59:28.970Z,13.82
2022-12-09T17:02:04.952Z,15.02
2022-12-09T17:04:35.269Z,16.80
2022-12-09T17:07:05.225Z,18.45
2022-12-09T17:09:38.009Z,14.65
2022-12-09T17:12:08.478Z,17.15
2022-12-09T17:14:39.020Z,17.48
2022-12-09T17:17:09.118Z,17.40
2022-12-09T17:19:39.184Z,18.35
2022-12-09T17:22:09.272Z,18.67
2022-12-09T17:24:42.170Z,17.58
2022-12-09T17:27:12.259Z,16.58
2022-12-09T17:29:45.644Z,15.02
2022-12-09T17:32:16.056Z,16.40
2022-12-09T17:34:46.088Z,17.33
2022-12-09T17:37:16.081Z,17.63
2022-12-09T17:39:55.676Z,17.67
2022-12-09T17:42:27.152Z,17.33
2022-12-09T17:44:57.473Z,17.67
2022-12-09T17:47:28.646Z,16.77
2022-12-09T17:49:58.935Z,17.33
2022-12-09T17:52:28.939Z,16.77
2022-12-09T17:55:01.824Z,24.65
2022-12-09T17:57:31.777Z,19.02
2022-12-09T18:00:01.753Z,22.77
2022-12-09T18:02:31.792Z,22.98
2022-12-09T18:05:01.826Z,21.00
2022-12-09T18:07:31.798Z,20.75
2022-12-09T18:10:04.824Z,20.00
2022-12-09T18:12:34.890Z,17.88
2022-12-09T18:15:05.059Z,19.15
2022-12-09T18:17:36.181Z,21.05
2022-12-09T18:20:06.683Z,21.05
2022-12-09T18:22:37.247Z,20.38
2022-12-09T18:25:11.017Z,19.65
2022-12-09T18:27:41.058Z,18.95
2022-12-09T18:30:12.484Z,19.52
2022-12-09T18:32:42.521Z,18.63
2022-12-09T18:35:13.197Z,21.67
2022-12-09T18:37:43.365Z,19.35
2022-12-09T18:40:21.254Z,19.02
2022-12-09T18:42:51.483Z,22.08
2022-12-09T18:45:21.578Z,18.75
2022-12-09T18:47:51.626Z,17.58
2022-12-09T18:50:21.969Z,18.75
2022-12-09T18:52:52.201Z,20.08
2022-12-09T18:55:24.780Z,19.08
2022-12-09T18:57:54.834Z,18.83
2022-12-09T19:00:25.038Z,17.65
2022-12-09T19:02:55.133Z,22.60
2022-12-09T19:05:26.372Z,19.92
2022-12-09T19:07:56.634Z,19.50
2022-12-09T19:10:29.273Z,19.65
2022-12-09T19:12:59.778Z,21.23
2022-12-09T19:15:30.054Z,21.05
2022-12-09T19:18:00.429Z,22.52
2022-12-09T19:20:30.655Z,20.40
2022-12-09T19:23:01.166Z,22.50
2022-12-09T19:25:33.740Z,22.15
2022-12-09T19:28:04.029Z,21.42
2022-12-09T19:30:34.129Z,21.10
2022-12-09T19:33:04.198Z,19.90
2022-12-09T19:35:34.517Z,21.10
2022-12-09T19:38:05.004Z,21.77
2022-12-09T19:40:37.628Z,22.23
2022-12-09T19:43:07.687Z,20.98
2022-12-09T19:45:37.643Z,20.30
2022-12-09T19:48:07.859Z,22.30
2022-12-09T19:50:38.922Z,22.38
2022-12-09T19:53:08.951Z,22.17
2022-12-09T19:55:42.077Z,22.70
2022-12-09T19:58:12.456Z,24.60
2022-12-09T20:00:42.469Z,22.80
2022-12-09T20:03:12.573Z,22.38
2022-12-09T20:05:51.255Z,21.20
2022-12-09T20:08:21.788Z,22.10
2022-12-09T20:10:54.630Z,21.60
2022-12-09T20:13:30.170Z,17.25
2022-12-09T20:16:06.465Z,21.70
2022-12-09T20:18:36.947Z,21.85
2022-12-09T20:21:08.611Z,21.73
2022-12-09T20:23:40.246Z,21.67
2022-12-09T20:26:14.769Z,23.92
2022-12-09T20:28:46.467Z,23.75
2022-12-09T20:33:48.168Z,19.08
2022-12-09T20:36:21.598Z,22.83
2022-12-09T20:38:52.986Z,22.67
2022-12-09T20:41:30.335Z,20.45
2022-12-09T20:44:01.922Z,19.48
2022-12-09T20:46:33.557Z,18.40
2022-12-09T20:49:13.883Z,19.48
2022-12-09T20:51:45.350Z,18.05
2022-12-09T20:54:16.649Z,21.27
2022-12-09T20:56:49.289Z,19.85
2022-12-09T20:59:19.567Z,18.75
2022-12-09T21:01:49.885Z,17.92
2022-12-09T21:04:20.470Z,19.38
2022-12-09T21:06:50.724Z,18.70
2022-12-09T21:09:24.858Z,15.80
2022-12-09T21:11:58.072Z,16.65
2022-12-09T21:14:32.976Z,16.05
2022-12-09T21:17:04.364Z,15.73
2022-12-09T21:19:34.437Z,16.20
2022-12-09T21:22:06.447Z,15.88
2022-12-09T21:24:36.749Z,11.85
2022-12-09T21:27:09.456Z,18.15
2022-12-09T21:29:40.423Z,14.50
2022-12-09T21:32:10.514Z,13.57
2022-12-09T21:34:40.538Z,13.15
2022-12-09T21:37:10.564Z,12.80
2022-12-09T21:39:40.779Z,12.90
2022-12-09T21:42:13.504Z,14.40
2022-12-09T21:44:43.683Z,14.07
2022-12-09T21:47:13.653Z,14.23
2022-12-09T21:49:43.880Z,12.98
2022-12-09T21:52:13.878Z,12.98
2022-12-09T21:54:43.947Z,12.90
2022-12-09T21:57:16.550Z,13.23
2022-12-09T21:59:46.745Z,12.45
2022-12-09T22:02:16.735Z,13.48
2022-12-09T22:04:46.884Z,14.73
2022-12-09T22:07:17.095Z,14.60
2022-12-09T22:09:47.306Z,15.30
2022-12-09T22:12:20.250Z,13.30
2022-12-09T22:14:50.340Z,14.65
2022-12-09T22:17:20.404Z,13.07
2022-12-09T22:20:07.762Z,14.38
2022-12-09T22:22:41.553Z,12.40
2022-12-09T22:25:13.032Z,12.27
2022-12-09T22:27:45.618Z,12.82
2022-12-09T22:30:17.708Z,13.00
2022-12-09T22:32:50.980Z,12.48
2022-12-09T22:35:21.464Z,9.80
2022-12-09T22:37:51.466Z,12.48
2022-12-09T22:40:21.650Z,14.95
2022-12-09T22:42:54.401Z,12.48
2022-12-09T22:45:24.781Z,13.38
2022-12-09T22:47:57.463Z,12.88
2022-12-09T22:50:27.538Z,14.02
2022-12-09T22:52:58.065Z,14.60
2022-12-09T22:55:28.062Z,13.50
2022-12-09T22:58:00.646Z,14.07
2022-12-09T23:00:30.631Z,13.13
2022-12-09T23:03:00.770Z,15.63
2022-12-09T23:05:34.864Z,13.93
2022-12-09T23:08:05.391Z,12.55
2022-12-09T23:10:35.560Z,13.40
2022-12-09T23:13:08.147Z,12.77
2022-12-09T23:15:38.965Z,13.13
2022-12-09T23:18:09.023Z,13.57
2022-12-09T23:20:39.065Z,11.55
2022-12-09T23:23:09.044Z,11.20
2022-12-09T23:25:39.043Z,14.10
2022-12-09T23:28:11.609Z,11.23
2022-12-09T23:30:41.912Z,12.50
2022-12-09T23:33:12.009Z,16.85
2022-12-09T23:35:42.030Z,14.65
2022-12-09T23:38:11.976Z,15.25
2022-12-09T23:40:41.909Z,15.20
2022-12-09T23:43:14.524Z,14.30
2022-12-09T23:45:44.700Z,14.73
2022-12-09T23:48:14.689Z,15.68
2022-12-09T23:50:44.933Z,17.80
2022-12-09T23:53:15.141Z,13.80
2022-12-09T23:55:45.624Z,14.80
2022-12-09T23:58:18.244Z,15.77
